createdAt,value
2023-11-17T00:00:32.060Z,6.81
2023-11-17T00:03:25.845Z,6.80
2023-11-17T00:05:57.995Z,6.77
2023-11-17T00:08:29.669Z,6.76
2023-11-17T00:11:01.675Z,6.74
2023-11-17T00:13:33.275Z,6.72
2023-11-17T00:16:05.888Z,6.70
2023-11-17T00:18:39.241Z,6.70
2023-11-17T00:21:11.501Z,6.69
2023-11-17T00:23:43.220Z,6.67
2023-11-17T00:26:13.894Z,6.65
2023-11-17T00:28:45.666Z,6.65
2023-11-17T00:31:17.459Z,6.63
2023-11-17T00:33:48.248Z,6.64
2023-11-17T00:36:20.327Z,6.62
2023-11-17T00:38:52.177Z,6.61
2023-11-17T00:41:28.316Z,6.60
2023-11-17T00:44:03.109Z,6.59
2023-11-17T00:46:35.256Z,6.59
2023-11-17T00:49:07.306Z,6.56
2023-11-17T00:51:40.899Z,6.58
2023-11-17T00:54:15.319Z,6.58
2023-11-17T00:56:46.987Z,6.58
2023-11-17T00:59:18.903Z,6.58
2023-11-17T01:01:51.976Z,6.59
2023-11-17T01:04:24.575Z,6.58
2023-11-17T01:06:56.832Z,6.60
2023-11-17T01:09:29.306Z,6.61
2023-11-17T01:12:01.540Z,6.63
2023-11-17T01:14:33.357Z,6.65
2023-11-17T01:17:05.736Z,6.66
2023-11-17T01:19:40.397Z,6.67
2023-11-17T01:22:12.958Z,6.67
2023-11-17T01:24:44.967Z,6.69
2023-11-17T01:27:18.272Z,6.69
2023-11-17T01:29:49.842Z,6.68
2023-11-17T01:32:23.302Z,6.69
2023-11-17T01:34:57.008Z,6.68
2023-11-17T01:37:28.776Z,6.70
2023-11-17T01:40:00.430Z,6.71
2023-11-17T01:42:34.675Z,6.71
2023-11-17T01:45:09.435Z,6.72
2023-11-17T01:47:43.807Z,6.70
2023-11-17T01:50:17.777Z,6.67
2023-11-17T01:52:49.635Z,6.63
2023-11-17T01:55:20.731Z,6.63
2023-11-17T01:57:53.308Z,6.64
2023-11-17T02:00:25.279Z,6.63
2023-11-17T02:03:00.969Z,6.62
2023-11-17T02:05:35.118Z,6.60
2023-11-17T02:08:37.502Z,6.58
2023-11-17T02:11:24.741Z,6.57
2023-11-17T02:14:09.171Z,6.56
2023-11-17T02:16:43.228Z,6.58
2023-11-17T02:19:35.401Z,6.59
2023-11-17T02:22:16.701Z,6.58
2023-11-17T02:25:11.360Z,6.57
2023-11-17T02:28:01.381Z,6.59
2023-11-17T02:30:34.876Z,6.62
2023-11-17T02:33:09.158Z,6.64
2023-11-17T02:35:44.167Z,6.65
2023-11-17T02:38:16.234Z,6.66
2023-11-17T02:40:48.121Z,6.66
2023-11-17T02:43:23.588Z,6.64
2023-11-17T02:45:56.805Z,6.64
2023-11-17T02:48:30.405Z,6.65
2023-11-17T02:51:18.604Z,6.66
2023-11-17T02:53:52.364Z,6.64
2023-11-17T02:56:24.435Z,6.63
2023-11-17T02:58:57.252Z,6.61
2023-11-17T03:01:29.069Z,6.61
2023-11-17T03:03:59.846Z,6.62
2023-11-17T03:06:32.569Z,6.61
2023-11-17T03:09:05.817Z,6.61
2023-11-17T03:11:38.117Z,6.61
2023-11-17T03:14:10.003Z,6.61
2023-11-17T03:16:42.110Z,6.61
2023-11-17T03:19:13.972Z,6.61
2023-11-17T03:21:45.351Z,6.59
2023-11-17T03:24:23.764Z,6.58
2023-11-17T03:26:57.797Z,6.59
2023-11-17T03:29:32.389Z,6.59
2023-11-17T03:32:07.816Z,6.58
2023-11-17T03:34:41.434Z,6.61
2023-11-17T03:37:13.797Z,6.58
2023-11-17T03:39:45.483Z,6.58
2023-11-17T03:42:19.114Z,6.61
2023-11-17T03:44:52.585Z,6.61
2023-11-17T03:47:24.334Z,6.59
2023-11-17T03:49:56.313Z,6.59
2023-11-17T03:52:28.481Z,6.59
2023-11-17T03:55:01.082Z,6.61
2023-11-17T03:57:37.444Z,6.60
2023-11-17T04:00:13.534Z,6.62
2023-11-17T04:02:45.165Z,6.62
2023-11-17T04:05:17.124Z,6.64
2023-11-17T04:07:49.738Z,6.66
2023-11-17T04:10:21.687Z,6.69
2023-11-17T04:12:53.894Z,6.68
2023-11-17T04:15:25.455Z,6.70
2023-11-17T04:17:58.212Z,6.69
2023-11-17T04:20:29.991Z,6.68
2023-11-17T04:23:01.610Z,6.68
2023-11-17T04:25:33.776Z,6.70
2023-11-17T04:28:05.863Z,6.70
2023-11-17T04:30:37.496Z,6.70
2023-11-17T04:33:10.000Z,6.71
2023-11-17T04:35:41.710Z,6.70
2023-11-17T04:38:13.813Z,6.71
2023-11-17T04:40:46.127Z,6.71
2023-11-17T04:43:17.933Z,6.72
2023-11-17T04:45:50.183Z,6.71
2023-11-17T04:48:21.940Z,6.70
2023-11-17T04:50:53.711Z,6.69
2023-11-17T04:53:25.432Z,6.66
2023-11-17T04:55:57.067Z,6.65
2023-11-17T04:58:28.753Z,6.65
2023-11-17T05:00:59.594Z,6.66
2023-11-17T05:03:31.462Z,6.69
2023-11-17T05:06:06.476Z,6.68
2023-11-17T05:08:40.420Z,6.68
2023-11-17T05:11:12.816Z,6.67
2023-11-17T05:13:44.546Z,6.67
2023-11-17T05:16:15.445Z,6.66
2023-11-17T05:18:48.644Z,6.65
2023-11-17T05:21:20.919Z,6.64
2023-11-17T05:23:55.052Z,6.64
2023-11-17T05:26:27.005Z,6.63
2023-11-17T05:28:58.637Z,6.63
2023-11-17T05:31:29.988Z,6.65
2023-11-17T05:34:02.604Z,6.64
2023-11-17T05:36:39.981Z,6.62
2023-11-17T05:39:13.872Z,6.63
2023-11-17T05:41:47.772Z,6.63
2023-11-17T05:44:19.880Z,6.65
2023-11-17T05:46:50.531Z,6.64
2023-11-17T05:49:22.297Z,6.66
2023-11-17T05:51:54.818Z,6.64
2023-11-17T05:54:26.676Z,6.64
2023-11-17T05:56:59.575Z,6.66
2023-11-17T05:59:31.785Z,6.68
2023-11-17T06:02:04.500Z,6.67
2023-11-17T06:04:36.919Z,6.69
2023-11-17T06:07:09.511Z,6.70
2023-11-17T06:09:43.483Z,6.70
2023-11-17T06:12:16.282Z,6.73
2023-11-17T06:14:48.974Z,6.75
2023-11-17T06:17:20.630Z,6.76
2023-11-17T06:19:51.453Z,6.77
2023-11-17T06:22:23.203Z,6.77
2023-11-17T06:24:55.058Z,6.77
2023-11-17T06:27:27.141Z,6.80
2023-11-17T06:29:57.722Z,6.80
2023-11-17T06:32:29.469Z,6.79
2023-11-17T06:35:01.527Z,6.81
2023-11-17T06:37:33.831Z,6.82
2023-11-17T06:40:10.783Z,6.84
2023-11-17T06:42:42.699Z,6.88
2023-11-17T06:45:13.657Z,6.90
2023-11-17T06:47:46.012Z,6.93
2023-11-17T06:50:18.161Z,6.96
2023-11-17T06:52:50.316Z,7.00
2023-11-17T06:55:22.222Z,7.03
2023-11-17T06:57:54.664Z,7.06
2023-11-17T07:00:26.515Z,7.11
2023-11-17T07:02:58.730Z,7.13
2023-11-17T07:05:31.333Z,7.15
2023-11-17T07:08:02.976Z,7.18
2023-11-17T07:10:34.006Z,7.22
2023-11-17T07:13:05.710Z,7.21
2023-11-17T07:15:40.647Z,7.23
2023-11-17T07:18:12.660Z,7.25
2023-11-17T07:20:44.340Z,7.24
2023-11-17T07:23:15.999Z,7.24
2023-11-17T07:25:46.694Z,7.25
2023-11-17T07:28:18.549Z,7.26
2023-11-17T07:30:50.424Z,7.30
2023-11-17T07:33:21.031Z,7.31
2023-11-17T07:35:53.309Z,7.31
2023-11-17T07:38:24.895Z,7.34
2023-11-17T07:40:56.460Z,7.36
2023-11-17T07:43:27.247Z,7.39
2023-11-17T07:45:59.232Z,7.40
2023-11-17T07:48:32.306Z,7.41
2023-11-17T07:51:07.831Z,7.44
2023-11-17T07:53:39.592Z,7.47
2023-11-17T07:56:12.271Z,7.50
2023-11-17T07:58:44.029Z,7.52
2023-11-17T08:01:14.628Z,7.55
2023-11-17T08:03:49.017Z,7.55
2023-11-17T08:06:20.730Z,7.55
2023-11-17T08:08:51.392Z,7.53
2023-11-17T08:11:25.856Z,7.51
2023-11-17T08:13:58.519Z,7.49
2023-11-17T08:16:30.238Z,7.49
2023-11-17T08:19:24.520Z,7.52
2023-11-17T08:22:05.626Z,7.51
2023-11-17T08:24:37.199Z,7.53
2023-11-17T08:27:09.022Z,7.55
2023-11-17T08:29:39.568Z,7.56
2023-11-17T08:32:12.227Z,7.54
2023-11-17T08:34:47.180Z,7.55
2023-11-17T08:37:19.098Z,7.55
2023-11-17T08:39:51.100Z,7.53
2023-11-17T08:42:23.219Z,7.53
2023-11-17T08:44:55.039Z,7.53
2023-11-17T08:47:27.091Z,7.53
2023-11-17T08:50:01.569Z,7.53
2023-11-17T08:52:36.067Z,7.54
2023-11-17T08:55:13.822Z,7.56
2023-11-17T08:57:47.047Z,7.58
2023-11-17T09:00:25.645Z,7.66
2023-11-17T09:02:57.255Z,7.71
2023-11-17T09:05:28.357Z,7.76
2023-11-17T09:07:59.907Z,7.84
2023-11-17T09:10:31.840Z,7.92
2023-11-17T09:13:05.463Z,8.00
2023-11-17T09:15:39.305Z,8.05
2023-11-17T09:18:14.166Z,8.10
2023-11-17T09:20:46.306Z,8.11
2023-11-17T09:23:18.414Z,8.11
2023-11-17T09:25:50.041Z,8.10
2023-11-17T09:28:21.901Z,8.15
2023-11-17T09:30:52.695Z,8.15
2023-11-17T09:33:26.331Z,8.13
2023-11-17T09:36:03.410Z,8.13
2023-11-17T09:38:37.499Z,8.12
2023-11-17T09:41:09.946Z,8.12
2023-11-17T09:43:47.781Z,8.12
2023-11-17T09:46:28.565Z,8.11
2023-11-17T09:49:04.729Z,8.08
2023-11-17T09:51:38.423Z,8.05
2023-11-17T09:54:14.392Z,8.05
2023-11-17T09:56:50.404Z,8.04
2023-11-17T09:59:23.289Z,8.03
2023-11-17T10:02:00.113Z,8.04
2023-11-17T10:04:33.077Z,8.07
2023-11-17T10:07:07.129Z,8.14
2023-11-17T10:09:40.904Z,8.22
2023-11-17T10:12:15.741Z,8.32
2023-11-17T10:14:49.279Z,8.41
2023-11-17T10:17:22.221Z,8.42
2023-11-17T10:19:56.177Z,8.33
2023-11-17T10:22:29.638Z,8.21
2023-11-17T10:25:01.875Z,8.15
2023-11-17T10:27:33.640Z,8.07
2023-11-17T10:30:05.424Z,8.01
2023-11-17T10:32:53.762Z,8.00
2023-11-17T10:35:35.481Z,8.00
2023-11-17T10:38:14.245Z,7.97
2023-11-17T10:40:46.060Z,7.93
2023-11-17T10:43:17.890Z,7.88
2023-11-17T10:45:49.013Z,7.80
2023-11-17T10:48:20.617Z,7.75
2023-11-17T10:51:07.604Z,7.72
2023-11-17T10:53:39.221Z,7.66
2023-11-17T10:56:24.972Z,7.63
2023-11-17T10:58:59.202Z,7.61
2023-11-17T11:01:32.315Z,7.57
2023-11-17T11:04:09.982Z,7.55
2023-11-17T11:06:43.274Z,7.51
2023-11-17T11:09:17.901Z,7.50
2023-11-17T11:11:51.034Z,7.50
2023-11-17T11:14:24.498Z,7.54
2023-11-17T11:16:57.388Z,7.52
2023-11-17T11:19:39.069Z,7.47
2023-11-17T11:22:18.197Z,7.42
2023-11-17T11:24:50.217Z,7.38
2023-11-17T11:27:24.213Z,7.38
2023-11-17T11:29:57.173Z,7.38
2023-11-17T11:32:29.147Z,7.41
2023-11-17T11:35:00.661Z,7.44
2023-11-17T11:37:34.546Z,7.49
2023-11-17T11:40:13.019Z,7.56
2023-11-17T11:42:47.073Z,7.59
2023-11-17T11:45:20.850Z,7.59
2023-11-17T11:47:58.089Z,7.61
2023-11-17T11:50:38.616Z,7.59
2023-11-17T11:53:36.629Z,7.56
2023-11-17T11:56:15.416Z,7.53
2023-11-17T11:58:49.705Z,7.46
2023-11-17T12:01:24.053Z,7.41
2023-11-17T12:04:02.276Z,7.35
2023-11-17T12:06:39.253Z,7.29
2023-11-17T12:09:17.019Z,7.28
2023-11-17T12:11:51.890Z,7.26
2023-11-17T12:14:31.326Z,7.24
2023-11-17T12:17:04.937Z,7.23
2023-11-17T12:19:38.371Z,7.21
2023-11-17T12:22:11.545Z,7.18
2023-11-17T12:24:44.106Z,7.15
2023-11-17T12:27:17.715Z,7.13
2023-11-17T12:29:50.461Z,7.10
2023-11-17T12:32:24.471Z,7.10
2023-11-17T12:34:57.407Z,7.07
2023-11-17T12:37:34.955Z,7.07
2023-11-17T12:40:20.088Z,7.06
2023-11-17T12:42:53.133Z,7.05
2023-11-17T12:45:28.754Z,7.05
2023-11-17T12:48:01.725Z,7.06
2023-11-17T12:50:45.699Z,7.09
2023-11-17T12:53:17.632Z,7.10
2023-11-17T12:55:51.140Z,7.11
2023-11-17T12:58:23.918Z,7.12
2023-11-17T13:01:11.553Z,7.14
2023-11-17T13:03:44.995Z,7.16
2023-11-17T13:06:19.106Z,7.15
2023-11-17T13:08:51.332Z,7.14
2023-11-17T13:11:27.143Z,7.10
2023-11-17T13:14:01.064Z,7.07
2023-11-17T13:16:33.442Z,6.98
2023-11-17T13:19:07.574Z,6.93
2023-11-17T13:21:39.931Z,6.88
2023-11-17T13:24:13.192Z,6.82
2023-11-17T13:26:45.076Z,6.78
2023-11-17T13:29:19.767Z,6.76
2023-11-17T13:32:02.487Z,6.71
2023-11-17T13:34:36.589Z,6.68
2023-11-17T13:37:12.163Z,6.65
2023-11-17T13:39:43.895Z,6.61
2023-11-17T13:42:17.514Z,6.58
2023-11-17T13:44:49.194Z,6.55
2023-11-17T13:47:20.210Z,6.53
2023-11-17T13:49:52.856Z,6.51
2023-11-17T13:52:24.475Z,6.48
2023-11-17T13:54:56.888Z,6.42
2023-11-17T13:57:28.675Z,6.38
2023-11-17T13:59:59.637Z,6.33
2023-11-17T14:02:31.518Z,6.29
2023-11-17T14:05:07.394Z,6.26
2023-11-17T14:07:39.484Z,6.24
2023-11-17T14:10:14.335Z,6.22
2023-11-17T14:12:47.458Z,6.20
2023-11-17T14:15:20.102Z,6.18
2023-11-17T14:17:53.039Z,6.14
2023-11-17T14:20:25.471Z,6.11
2023-11-17T14:22:57.632Z,6.09
2023-11-17T14:25:29.344Z,6.09
2023-11-17T14:28:00.107Z,6.09
2023-11-17T14:30:32.337Z,6.06
2023-11-17T14:33:05.688Z,6.03
2023-11-17T14:35:37.390Z,5.98
2023-11-17T14:38:09.290Z,5.94
2023-11-17T14:40:41.142Z,5.88
2023-11-17T14:43:13.270Z,5.83
2023-11-17T14:45:45.063Z,5.77
2023-11-17T14:48:16.892Z,5.68
2023-11-17T14:50:49.228Z,5.61
2023-11-17T14:53:20.951Z,5.54
2023-11-17T14:55:52.709Z,5.46
2023-11-17T14:58:24.769Z,5.39
2023-11-17T15:00:56.912Z,5.35
2023-11-17T15:03:29.479Z,5.30
2023-11-17T15:06:06.267Z,5.27
2023-11-17T15:08:40.431Z,5.25
2023-11-17T15:11:14.383Z,5.22
2023-11-17T15:13:46.999Z,5.21
2023-11-17T15:16:24.126Z,5.16
2023-11-17T15:18:59.234Z,5.11
2023-11-17T15:21:35.480Z,5.05
2023-11-17T15:24:09.770Z,4.99
2023-11-17T15:26:42.751Z,4.94
2023-11-17T15:29:15.377Z,4.92
2023-11-17T15:31:50.752Z,4.88
2023-11-17T15:34:29.457Z,4.85
2023-11-17T15:37:03.499Z,4.84
2023-11-17T15:39:35.210Z,4.83
2023-11-17T15:42:08.549Z,4.79
2023-11-17T15:44:43.002Z,4.78
2023-11-17T15:47:15.294Z,4.77
2023-11-17T15:49:47.018Z,4.76
2023-11-17T15:52:19.534Z,4.73
2023-11-17T15:54:51.232Z,4.70
2023-11-17T15:57:23.827Z,4.68
2023-11-17T15:59:56.131Z,4.64
2023-11-17T16:02:27.733Z,4.63
2023-11-17T16:04:58.490Z,4.61
2023-11-17T16:07:30.087Z,4.59
2023-11-17T16:10:07.576Z,4.58
2023-11-17T16:12:40.465Z,4.57
2023-11-17T16:15:14.464Z,4.53
2023-11-17T16:17:48.356Z,4.49
2023-11-17T16:20:21.702Z,4.46
2023-11-17T16:22:54.632Z,4.45
2023-11-17T16:25:27.184Z,4.42
2023-11-17T16:27:59.628Z,4.40
2023-11-17T16:30:32.319Z,4.38
2023-11-17T16:33:07.215Z,4.37
2023-11-17T16:35:39.737Z,4.34
2023-11-17T16:38:11.619Z,4.31
2023-11-17T16:40:44.156Z,4.27
2023-11-17T16:43:16.613Z,4.27
2023-11-17T16:45:51.933Z,4.27
2023-11-17T16:48:23.617Z,4.27
2023-11-17T16:50:55.370Z,4.27
2023-11-17T16:53:29.363Z,4.22
2023-11-17T16:56:01.501Z,4.19
2023-11-17T16:58:33.214Z,4.13
2023-11-17T17:01:05.349Z,4.10
2023-11-17T17:03:47.546Z,4.06
2023-11-17T17:06:31.757Z,4.01
2023-11-17T17:09:16.313Z,3.94
2023-11-17T17:11:49.477Z,3.89
2023-11-17T17:14:21.267Z,3.87
2023-11-17T17:16:54.940Z,3.84
2023-11-17T17:19:30.094Z,3.81
2023-11-17T17:22:03.519Z,3.77
2023-11-17T17:24:37.178Z,3.75
2023-11-17T17:27:10.326Z,3.74
2023-11-17T17:29:42.978Z,3.74
2023-11-17T17:32:14.862Z,3.77
2023-11-17T17:34:47.968Z,3.76
2023-11-17T17:37:20.054Z,3.76
2023-11-17T17:39:53.160Z,3.76
2023-11-17T17:42:25.160Z,3.76
2023-11-17T17:44:56.823Z,3.74
2023-11-17T17:47:27.733Z,3.72
2023-11-17T17:50:00.029Z,3.71
2023-11-17T17:52:32.361Z,3.71
2023-11-17T17:55:06.238Z,3.72
2023-11-17T17:57:38.428Z,3.72
2023-11-17T18:00:16.800Z,3.73
2023-11-17T18:02:52.617Z,3.71
2023-11-17T18:05:24.572Z,3.68
2023-11-17T18:07:56.576Z,3.66
2023-11-17T18:10:28.763Z,3.64
2023-11-17T18:13:01.252Z,3.63
2023-11-17T18:15:34.640Z,3.62
2023-11-17T18:18:07.128Z,3.62
2023-11-17T18:20:39.016Z,3.63
2023-11-17T18:23:11.188Z,3.62
2023-11-17T18:25:42.874Z,3.64
2023-11-17T18:28:14.649Z,3.66
2023-11-17T18:30:46.782Z,3.66
2023-11-17T18:33:19.022Z,3.64
2023-11-17T18:35:54.776Z,3.64
2023-11-17T18:38:26.851Z,3.61
2023-11-17T18:40:58.681Z,3.60
2023-11-17T18:43:31.349Z,3.59
2023-11-17T18:46:05.914Z,3.60
2023-11-17T18:48:40.032Z,3.61
2023-11-17T18:51:15.195Z,3.62
2023-11-17T18:53:47.305Z,3.62
2023-11-17T18:56:19.265Z,3.63
2023-11-17T18:58:50.302Z,3.61
2023-11-17T19:01:23.158Z,3.61
2023-11-17T19:03:55.041Z,3.61
2023-11-17T19:06:26.721Z,3.62
2023-11-17T19:08:59.705Z,3.62
2023-11-17T19:11:31.910Z,3.63
2023-11-17T19:14:03.956Z,3.66
2023-11-17T19:16:36.869Z,3.67
2023-11-17T19:19:09.596Z,3.68
2023-11-17T19:21:44.746Z,3.67
2023-11-17T19:24:21.652Z,3.66
2023-11-17T19:27:10.199Z,3.66
2023-11-17T19:29:45.242Z,3.64
2023-11-17T19:32:17.538Z,3.63
2023-11-17T19:34:51.740Z,3.62
2023-11-17T19:37:25.923Z,3.63
2023-11-17T19:39:58.392Z,3.63
2023-11-17T19:42:31.047Z,3.62
2023-11-17T19:45:07.893Z,3.61
2023-11-17T19:47:40.482Z,3.63
2023-11-17T19:50:15.926Z,3.63
2023-11-17T19:52:50.281Z,3.62
2023-11-17T19:55:24.228Z,3.62
2023-11-17T19:57:57.562Z,3.62
2023-11-17T20:00:30.178Z,3.62
2023-11-17T20:03:02.764Z,3.63
2023-11-17T20:05:35.814Z,3.61
2023-11-17T20:08:12.531Z,3.60
2023-11-17T20:10:46.048Z,3.59
2023-11-17T20:13:21.701Z,3.59
2023-11-17T20:15:53.709Z,3.60
2023-11-17T20:18:27.195Z,3.60
2023-11-17T20:21:00.049Z,3.60
2023-11-17T20:23:32.588Z,3.56
2023-11-17T20:26:07.366Z,3.57
2023-11-17T20:28:40.360Z,3.58
2023-11-17T20:31:16.438Z,3.60
2023-11-17T20:33:49.337Z,3.61
2023-11-17T20:36:25.623Z,3.63
2023-11-17T20:38:58.399Z,3.64
2023-11-17T20:41:33.462Z,3.65
2023-11-17T20:44:07.368Z,3.66
2023-11-17T20:46:40.805Z,3.68
2023-11-17T20:49:13.863Z,3.70
2023-11-17T20:51:46.799Z,3.70
2023-11-17T20:54:19.488Z,3.71
2023-11-17T20:56:51.568Z,3.72
2023-11-17T20:59:26.872Z,3.73
2023-11-17T21:02:00.729Z,3.75
2023-11-17T21:04:36.741Z,3.77
2023-11-17T21:07:10.998Z,3.78
2023-11-17T21:09:43.385Z,3.79
2023-11-17T21:12:15.734Z,3.81
2023-11-17T21:14:47.673Z,3.80
2023-11-17T21:17:20.874Z,3.81
2023-11-17T21:19:54.048Z,3.81
2023-11-17T21:22:26.685Z,3.81
2023-11-17T21:24:58.371Z,3.83
2023-11-17T21:27:30.229Z,3.82
2023-11-17T21:30:00.984Z,3.85
2023-11-17T21:32:33.105Z,3.86
2023-11-17T21:35:12.782Z,3.87
2023-11-17T21:37:46.396Z,3.88
2023-11-17T21:40:20.468Z,3.87
2023-11-17T21:42:52.930Z,3.88
2023-11-17T21:45:26.690Z,3.89
2023-11-17T21:47:59.309Z,3.88
2023-11-17T21:50:33.248Z,3.87
2023-11-17T21:53:05.468Z,3.88
2023-11-17T21:55:37.280Z,3.91
2023-11-17T21:58:09.333Z,3.92
2023-11-17T22:00:41.553Z,3.91
2023-11-17T22:03:13.802Z,3.91
2023-11-17T22:05:45.937Z,3.91
2023-11-17T22:08:17.674Z,3.93
2023-11-17T22:10:49.688Z,3.95
2023-11-17T22:13:21.851Z,3.95
2023-11-17T22:15:53.736Z,3.93
2023-11-17T22:18:24.381Z,3.93
2023-11-17T22:20:57.482Z,3.92
2023-11-17T22:23:29.049Z,3.91
2023-11-17T22:26:00.848Z,3.92
2023-11-17T22:28:32.574Z,3.91
2023-11-17T22:31:05.553Z,3.90
2023-11-17T22:33:43.020Z,3.91
2023-11-17T22:36:16.778Z,3.92
2023-11-17T22:38:48.527Z,3.91
2023-11-17T22:41:21.036Z,3.91
2023-11-17T22:43:52.636Z,3.91
2023-11-17T22:46:24.352Z,3.91
2023-11-17T22:48:56.333Z,3.92
2023-11-17T22:51:28.351Z,3.92
2023-11-17T22:54:02.017Z,3.94
2023-11-17T22:56:35.144Z,3.93
2023-11-17T22:59:06.157Z,3.96
2023-11-17T23:01:37.854Z,3.97
2023-11-17T23:04:10.501Z,3.98
2023-11-17T23:06:42.678Z,3.98
2023-11-17T23:09:15.591Z,3.99
2023-11-17T23:11:47.079Z,4.01
2023-11-17T23:14:18.755Z,4.01
2023-11-17T23:16:50.351Z,4.02
2023-11-17T23:19:22.098Z,4.03
2023-11-17T23:21:53.603Z,4.03
2023-11-17T23:24:26.273Z,4.05
2023-11-17T23:26:57.948Z,4.05
2023-11-17T23:29:29.828Z,4.06
2023-11-17T23:32:01.630Z,4.06
2023-11-17T23:34:33.742Z,4.07
2023-11-17T23:37:06.007Z,4.09
2023-11-17T23:39:37.730Z,4.08
2023-11-17T23:42:09.801Z,4.08
2023-11-17T23:44:45.028Z,4.08
2023-11-17T23:47:17.051Z,4.07
2023-11-17T23:49:51.189Z,4.06
2023-11-17T23:52:23.099Z,4.05
2023-11-17T23:54:55.479Z,4.01
2023-11-17T23:57:27.394Z,3.99
2023-11-17T23:59:58.019Z,3.98
